createdAt,value
2017-10-26T00:01:07.723Z,12.87
2017-10-26T00:03:35.344Z,12.70
2017-10-26T00:06:02.975Z,13.70
2017-10-26T00:08:30.611Z,15.17
2017-10-26T00:10:58.207Z,14.40
2017-10-26T00:13:25.863Z,14.13
2017-10-26T00:15:53.475Z,15.50
2017-10-26T00:18:22.818Z,13.30
2017-10-26T00:20:51.169Z,14.53
2017-10-26T00:23:27.052Z,13.30
2017-10-26T00:26:00.980Z,13.93
2017-10-26T00:28:30.089Z,15.60
2017-10-26T00:30:58.136Z,14.57
2017-10-26T00:33:30.300Z,14.50
2017-10-26T00:35:58.313Z,13.90
2017-10-26T00:38:26.581Z,15.50
2017-10-26T00:40:54.662Z,14.37
2017-10-26T00:43:23.019Z,15.67
2017-10-26T00:45:51.010Z,15.70
2017-10-26T00:48:19.502Z,16.13
2017-10-26T00:50:48.435Z,14.13
2017-10-26T00:53:17.224Z,13.37
2017-10-26T00:55:45.002Z,15.53
2017-10-26T00:58:12.700Z,15.17
2017-10-26T01:00:40.432Z,15.40
2017-10-26T01:03:09.225Z,17.70
2017-10-26T01:05:37.508Z,15.77
2017-10-26T01:08:08.366Z,17.90
2017-10-26T01:10:36.428Z,15.97
2017-10-26T01:13:11.929Z,14.37
2017-10-26T01:15:39.809Z,15.57
2017-10-26T01:18:07.446Z,14.43
2017-10-26T01:20:35.044Z,14.37
2017-10-26T01:23:02.663Z,14.97
2017-10-26T01:25:30.275Z,14.23
2017-10-26T01:27:58.083Z,15.43
2017-10-26T01:30:25.882Z,15.50
2017-10-26T01:32:54.535Z,18.17
2017-10-26T01:38:01.243Z,15.47
2017-10-26T01:40:29.440Z,15.33
2017-10-26T01:42:57.547Z,14.00
2017-10-26T01:45:25.395Z,13.83
2017-10-26T01:47:55.330Z,14.20
2017-10-26T01:50:24.224Z,15.43
2017-10-26T01:52:52.012Z,14.93
2017-10-26T01:55:19.852Z,14.00
2017-10-26T01:57:47.463Z,15.10
2017-10-26T02:00:15.078Z,13.97
2017-10-26T02:02:42.687Z,15.60
2017-10-26T02:05:10.351Z,14.87
2017-10-26T02:07:37.947Z,15.13
2017-10-26T02:10:05.647Z,14.07
2017-10-26T02:12:33.251Z,16.70
2017-10-26T02:15:00.899Z,16.17
2017-10-26T02:17:28.483Z,14.87
2017-10-26T02:19:56.097Z,15.10
2017-10-26T02:22:23.672Z,16.03
2017-10-26T02:24:51.395Z,16.10
2017-10-26T02:27:19.061Z,14.73
2017-10-26T02:29:58.401Z,15.00
2017-10-26T02:32:26.093Z,15.47
2017-10-26T02:34:54.391Z,14.53
2017-10-26T02:37:22.213Z,15.27
2017-10-26T02:39:49.970Z,16.67
2017-10-26T02:42:17.834Z,15.00
2017-10-26T02:44:45.675Z,16.07
2017-10-26T02:47:13.399Z,15.70
2017-10-26T02:49:41.042Z,15.83
2017-10-26T02:52:08.683Z,13.60
2017-10-26T02:54:36.338Z,14.77
2017-10-26T02:57:05.013Z,14.03
2017-10-26T02:59:32.764Z,14.90
2017-10-26T03:02:00.483Z,15.80
2017-10-26T03:04:28.381Z,14.80
2017-10-26T03:06:56.196Z,14.90
2017-10-26T03:09:23.963Z,15.97
2017-10-26T03:11:51.669Z,16.10
2017-10-26T03:14:19.489Z,14.83
2017-10-26T03:16:47.197Z,15.20
2017-10-26T03:19:15.032Z,17.80
2017-10-26T03:21:42.803Z,14.73
2017-10-26T03:24:10.491Z,15.07
2017-10-26T03:26:38.281Z,15.20
2017-10-26T03:29:05.995Z,16.50
2017-10-26T03:31:33.885Z,17.10
2017-10-26T03:34:01.696Z,17.57
2017-10-26T03:36:29.606Z,15.47
2017-10-26T03:38:57.489Z,15.33
2017-10-26T03:41:25.515Z,16.97
2017-10-26T03:43:53.158Z,15.07
2017-10-26T03:46:20.764Z,14.47
2017-10-26T03:48:48.396Z,14.03
2017-10-26T03:51:16.042Z,15.53
2017-10-26T03:53:43.759Z,14.50
2017-10-26T03:56:11.416Z,13.67
2017-10-26T03:58:39.103Z,14.43
2017-10-26T04:01:06.777Z,16.23
2017-10-26T04:03:34.411Z,16.10
2017-10-26T04:06:02.019Z,13.77
2017-10-26T04:08:29.610Z,12.93
2017-10-26T04:10:57.251Z,14.63
2017-10-26T04:13:24.846Z,12.13
2017-10-26T04:15:52.514Z,13.30
2017-10-26T04:18:20.119Z,11.27
2017-10-26T04:20:47.772Z,12.60
2017-10-26T04:23:15.375Z,12.53
2017-10-26T04:25:43.019Z,47.80
2017-10-26T04:28:10.636Z,91.77
2017-10-26T04:30:38.267Z,46.80
2017-10-26T04:33:05.848Z,19.23
2017-10-26T04:35:33.488Z,13.97
2017-10-26T04:38:01.075Z,15.13
2017-10-26T04:40:28.735Z,19.00
2017-10-26T04:42:56.335Z,17.87
2017-10-26T04:45:23.970Z,14.30
2017-10-26T04:47:51.574Z,14.80
2017-10-26T04:50:19.207Z,12.97
2017-10-26T04:52:46.819Z,12.97
2017-10-26T04:55:14.455Z,14.37
2017-10-26T04:57:42.054Z,18.00
2017-10-26T05:00:09.702Z,15.43
2017-10-26T05:02:37.307Z,15.07
2017-10-26T05:05:04.941Z,12.10
2017-10-26T05:07:32.531Z,12.67
2017-10-26T05:10:00.162Z,12.63
2017-10-26T05:12:27.762Z,13.70
2017-10-26T05:14:55.403Z,12.30
2017-10-26T05:17:23.006Z,13.70
2017-10-26T05:19:50.613Z,11.83
2017-10-26T05:22:19.792Z,12.30
2017-10-26T05:24:47.428Z,12.20
2017-10-26T05:27:15.339Z,8.20
2017-10-26T05:29:43.002Z,12.70
2017-10-26T05:32:10.683Z,13.27
2017-10-26T05:34:38.442Z,12.70
2017-10-26T05:37:06.223Z,12.63
2017-10-26T05:39:34.055Z,11.60
2017-10-26T05:42:01.712Z,11.77
2017-10-26T05:44:29.331Z,12.70
2017-10-26T05:46:57.050Z,11.47
2017-10-26T05:49:24.844Z,10.90
2017-10-26T05:51:52.583Z,13.00
2017-10-26T05:54:20.197Z,12.77
2017-10-26T05:56:47.824Z,10.80
2017-10-26T05:59:15.535Z,10.70
2017-10-26T06:01:43.160Z,10.70
2017-10-26T06:04:10.764Z,11.00
2017-10-26T06:06:38.446Z,14.80
2017-10-26T06:09:06.169Z,12.67
2017-10-26T06:11:34.015Z,12.27
2017-10-26T06:14:01.682Z,11.30
2017-10-26T06:16:29.371Z,10.57
2017-10-26T06:18:57.057Z,11.00
2017-10-26T06:21:25.008Z,10.20
2017-10-26T06:23:52.734Z,9.43
2017-10-26T06:26:20.445Z,10.40
2017-10-26T06:28:48.100Z,9.30
2017-10-26T06:31:15.867Z,10.87
2017-10-26T06:33:43.649Z,10.90
2017-10-26T06:36:11.524Z,10.03
2017-10-26T06:38:39.191Z,10.23
2017-10-26T06:41:07.030Z,9.93
2017-10-26T06:43:34.671Z,9.50
2017-10-26T06:46:02.417Z,9.63
2017-10-26T06:48:30.014Z,10.23
2017-10-26T06:50:57.636Z,8.90
2017-10-26T06:53:25.251Z,10.33
2017-10-26T06:55:52.890Z,9.97
2017-10-26T06:58:20.495Z,9.70
2017-10-26T07:00:48.349Z,11.97
2017-10-26T07:03:15.959Z,10.57
2017-10-26T07:05:43.696Z,10.37
2017-10-26T07:08:11.331Z,12.20
2017-10-26T07:10:38.956Z,10.97
2017-10-26T07:13:06.588Z,11.33
2017-10-26T07:15:34.216Z,10.83
2017-10-26T07:18:01.807Z,9.67
2017-10-26T07:20:29.574Z,11.63
2017-10-26T07:22:57.175Z,12.00
2017-10-26T07:25:24.791Z,13.37
2017-10-26T07:27:52.431Z,11.40
2017-10-26T07:30:20.163Z,11.43
2017-10-26T07:32:47.790Z,11.83
2017-10-26T07:35:15.403Z,11.57
2017-10-26T07:37:43.046Z,12.57
2017-10-26T07:40:10.652Z,12.30
2017-10-26T07:42:38.295Z,12.77
2017-10-26T07:45:05.914Z,11.67
2017-10-26T07:47:33.531Z,14.30
2017-10-26T07:50:01.149Z,12.33
2017-10-26T07:52:28.793Z,13.17
2017-10-26T07:54:56.511Z,12.40
2017-10-26T07:57:24.139Z,11.00
2017-10-26T07:59:51.738Z,11.17
2017-10-26T08:02:19.372Z,12.63
2017-10-26T08:04:46.971Z,11.53
2017-10-26T08:07:14.630Z,12.07
2017-10-26T08:09:42.243Z,12.63
2017-10-26T08:12:09.886Z,12.67
2017-10-26T08:14:37.487Z,11.30
2017-10-26T08:17:05.143Z,12.40
2017-10-26T08:19:32.818Z,11.20
2017-10-26T08:22:00.462Z,11.43
2017-10-26T08:24:28.070Z,11.00
2017-10-26T08:26:55.833Z,10.60
2017-10-26T08:29:23.671Z,10.80
2017-10-26T08:31:51.355Z,10.53
2017-10-26T08:34:19.196Z,9.77
2017-10-26T08:36:46.891Z,9.40
2017-10-26T08:39:14.535Z,7.90
2017-10-26T08:41:42.322Z,7.67
2017-10-26T08:44:09.995Z,6.90
2017-10-26T08:46:37.777Z,6.00
2017-10-26T08:49:05.470Z,5.67
2017-10-26T08:51:33.107Z,5.60
2017-10-26T08:54:00.784Z,3.90
2017-10-26T08:56:28.459Z,4.33
2017-10-26T08:58:56.141Z,3.80
2017-10-26T09:01:23.771Z,3.30
2017-10-26T09:03:51.467Z,3.60
2017-10-26T09:06:19.099Z,3.40
2017-10-26T09:08:46.714Z,3.83
2017-10-26T09:11:14.309Z,3.37
2017-10-26T09:13:41.957Z,4.17
2017-10-26T09:16:09.543Z,4.57
2017-10-26T09:18:37.167Z,3.13
2017-10-26T09:21:04.771Z,4.20
2017-10-26T09:23:32.429Z,4.30
2017-10-26T09:26:00.011Z,4.83
2017-10-26T09:28:27.773Z,4.40
2017-10-26T09:30:55.362Z,4.40
2017-10-26T09:33:28.375Z,4.10
2017-10-26T09:35:55.983Z,4.37
2017-10-26T09:38:23.644Z,5.30
2017-10-26T09:40:51.233Z,5.50
2017-10-26T09:43:20.072Z,5.37
2017-10-26T09:45:48.010Z,4.50
2017-10-26T09:48:15.938Z,5.63
2017-10-26T09:50:43.615Z,4.73
2017-10-26T09:53:11.231Z,3.90
2017-10-26T09:55:38.939Z,4.30
2017-10-26T09:58:06.610Z,4.93
2017-10-26T10:00:35.394Z,5.47
2017-10-26T10:03:03.030Z,5.20
2017-10-26T10:05:30.762Z,5.20
2017-10-26T10:07:58.358Z,5.40
2017-10-26T10:10:26.035Z,6.03
2017-10-26T10:12:53.697Z,6.00
2017-10-26T10:15:21.459Z,5.00
2017-10-26T10:17:49.219Z,5.90
2017-10-26T10:20:16.905Z,6.50
2017-10-26T10:22:44.501Z,6.30
2017-10-26T10:25:12.141Z,6.73
2017-10-26T10:27:39.792Z,6.27
2017-10-26T10:30:07.418Z,7.33
2017-10-26T10:32:35.016Z,5.63
2017-10-26T10:35:02.654Z,7.17
2017-10-26T10:37:30.230Z,6.60
2017-10-26T10:39:58.013Z,6.37
2017-10-26T10:42:25.631Z,7.70
2017-10-26T10:44:53.223Z,6.03
2017-10-26T10:47:20.854Z,6.00
2017-10-26T10:49:48.481Z,6.37
2017-10-26T10:52:16.109Z,6.30
2017-10-26T10:54:43.739Z,6.00
2017-10-26T10:57:11.370Z,5.53
2017-10-26T10:59:44.427Z,6.90
2017-10-26T11:02:12.056Z,6.20
2017-10-26T11:04:39.660Z,6.03
2017-10-26T11:07:07.312Z,5.67
2017-10-26T11:09:34.931Z,6.00
2017-10-26T11:12:02.650Z,6.20
2017-10-26T11:14:30.416Z,6.73
2017-10-26T11:16:58.340Z,18.27
2017-10-26T11:19:26.470Z,5.90
2017-10-26T11:21:54.191Z,7.20
2017-10-26T11:24:21.964Z,6.37
2017-10-26T11:26:49.676Z,4.77
2017-10-26T11:29:17.706Z,5.40
2017-10-26T11:31:45.566Z,3.90
2017-10-26T11:34:13.780Z,4.87
2017-10-26T11:36:41.563Z,4.53
2017-10-26T11:39:09.323Z,4.40
2017-10-26T11:41:37.021Z,4.80
2017-10-26T11:44:04.840Z,4.40
2017-10-26T11:46:32.419Z,7.63
2017-10-26T11:49:00.030Z,5.00
2017-10-26T11:51:27.634Z,5.90
2017-10-26T11:53:55.227Z,5.63
2017-10-26T11:56:22.813Z,6.60
2017-10-26T11:58:50.454Z,6.80
2017-10-26T12:01:18.053Z,6.50
2017-10-26T12:03:45.680Z,5.97
2017-10-26T12:06:13.268Z,5.60
2017-10-26T12:08:40.947Z,5.60
2017-10-26T12:11:08.578Z,6.30
2017-10-26T12:13:36.307Z,6.80
2017-10-26T12:16:04.172Z,6.40
2017-10-26T12:18:32.731Z,6.03
2017-10-26T12:21:00.450Z,6.17
2017-10-26T12:23:28.060Z,7.60
2017-10-26T12:25:55.709Z,6.63
2017-10-26T12:28:23.346Z,5.80
2017-10-26T12:30:50.967Z,6.60
2017-10-26T12:33:18.591Z,7.20
2017-10-26T12:35:46.199Z,6.80
2017-10-26T12:38:13.787Z,7.17
2017-10-26T12:40:41.534Z,6.37
2017-10-26T12:43:09.138Z,6.00
2017-10-26T12:45:36.756Z,6.00
2017-10-26T12:48:04.380Z,6.47
2017-10-26T12:50:32.012Z,5.70
2017-10-26T12:52:59.616Z,6.43
2017-10-26T12:55:27.419Z,6.13
2017-10-26T12:57:54.998Z,5.03
2017-10-26T13:00:22.626Z,4.80
2017-10-26T13:02:50.262Z,4.97
2017-10-26T13:05:17.924Z,4.60
2017-10-26T13:07:45.567Z,5.07
2017-10-26T13:10:13.175Z,3.90
2017-10-26T13:12:40.810Z,5.17
2017-10-26T13:15:08.428Z,6.03
2017-10-26T13:17:36.055Z,5.23
2017-10-26T13:20:03.867Z,5.63
2017-10-26T13:22:31.478Z,6.20
2017-10-26T13:24:59.063Z,5.30
2017-10-26T13:27:26.670Z,5.10
2017-10-26T13:29:54.287Z,6.07
2017-10-26T13:32:21.906Z,5.70
2017-10-26T13:34:49.509Z,5.67
2017-10-26T13:37:17.154Z,5.87
2017-10-26T13:39:44.763Z,7.43
2017-10-26T13:42:12.398Z,5.73
2017-10-26T13:44:39.995Z,5.53
2017-10-26T13:47:07.696Z,5.93
2017-10-26T13:49:35.316Z,10.80
2017-10-26T13:52:02.941Z,7.40
2017-10-26T13:54:30.536Z,5.93
2017-10-26T13:56:58.162Z,5.40
2017-10-26T13:59:25.776Z,6.70
2017-10-26T14:01:53.402Z,9.33
2017-10-26T14:04:21.005Z,8.10
2017-10-26T14:06:48.634Z,6.87
2017-10-26T14:09:16.283Z,4.07
2017-10-26T14:11:43.877Z,5.97
2017-10-26T14:14:11.578Z,5.67
2017-10-26T14:16:39.194Z,6.10
2017-10-26T14:19:06.810Z,6.77
2017-10-26T14:21:34.407Z,6.17
2017-10-26T14:24:02.038Z,5.50
2017-10-26T14:26:29.635Z,15.73
2017-10-26T14:28:57.294Z,6.33
2017-10-26T14:31:24.900Z,5.43
2017-10-26T14:33:52.541Z,4.87
2017-10-26T14:36:20.133Z,6.10
2017-10-26T14:38:47.807Z,5.57
2017-10-26T14:41:15.430Z,5.47
2017-10-26T14:43:43.147Z,5.00
2017-10-26T14:46:10.735Z,6.20
2017-10-26T14:48:38.413Z,7.27
2017-10-26T14:51:06.040Z,5.60
2017-10-26T14:53:33.666Z,5.70
2017-10-26T14:56:01.265Z,5.63
2017-10-26T14:58:28.899Z,6.43
2017-10-26T15:00:56.512Z,6.53
2017-10-26T15:03:24.191Z,6.37
2017-10-26T15:05:51.778Z,5.60
2017-10-26T15:08:19.427Z,6.60
2017-10-26T15:10:47.086Z,6.60
2017-10-26T15:13:14.887Z,6.80
2017-10-26T15:15:42.526Z,5.70
2017-10-26T15:18:10.259Z,6.30
2017-10-26T15:20:37.942Z,6.27
2017-10-26T15:23:05.599Z,6.37
2017-10-26T15:25:33.270Z,6.17
2017-10-26T15:28:00.936Z,7.10
2017-10-26T15:30:28.642Z,6.07
2017-10-26T15:32:56.336Z,5.63
2017-10-26T15:35:25.287Z,6.90
2017-10-26T15:37:52.979Z,6.13
2017-10-26T15:40:20.769Z,6.40
2017-10-26T15:42:48.374Z,6.70
2017-10-26T15:45:16.050Z,7.63
2017-10-26T15:47:43.654Z,6.60
2017-10-26T15:50:11.284Z,8.77
2017-10-26T15:52:38.879Z,7.20
2017-10-26T15:55:06.512Z,7.53
2017-10-26T15:57:34.146Z,7.40
2017-10-26T16:00:01.863Z,6.90
2017-10-26T16:02:29.518Z,8.07
2017-10-26T16:04:57.308Z,8.07
2017-10-26T16:07:24.906Z,7.80
2017-10-26T16:09:52.555Z,9.47
2017-10-26T16:12:20.170Z,8.40
2017-10-26T16:14:47.799Z,8.50
2017-10-26T16:17:15.408Z,8.03
2017-10-26T16:19:43.315Z,8.20
2017-10-26T16:22:10.923Z,8.83
2017-10-26T16:24:38.559Z,10.07
2017-10-26T16:27:06.295Z,9.40
2017-10-26T16:29:33.911Z,10.50
2017-10-26T16:32:01.558Z,9.57
2017-10-26T16:34:29.176Z,10.03
2017-10-26T16:36:56.815Z,9.60
2017-10-26T16:39:24.439Z,12.60
2017-10-26T16:41:52.147Z,10.40
2017-10-26T16:44:19.929Z,9.57
2017-10-26T16:46:47.584Z,9.80
2017-10-26T16:49:15.190Z,10.43
2017-10-26T16:51:42.843Z,10.97
2017-10-26T16:54:10.483Z,10.70
2017-10-26T16:56:38.164Z,10.90
2017-10-26T16:59:05.918Z,10.73
2017-10-26T17:01:33.559Z,11.20
2017-10-26T17:04:01.162Z,11.87
2017-10-26T17:06:28.845Z,11.77
2017-10-26T17:08:56.458Z,11.77
2017-10-26T17:11:24.116Z,10.90
2017-10-26T17:13:51.731Z,11.10
2017-10-26T17:16:19.518Z,9.70
2017-10-26T17:18:47.242Z,11.83
2017-10-26T17:21:14.907Z,11.30
2017-10-26T17:23:42.702Z,11.70
2017-10-26T17:26:10.307Z,10.10
2017-10-26T17:28:38.126Z,39.60
2017-10-26T17:31:05.925Z,22.40
2017-10-26T17:33:33.907Z,10.77
2017-10-26T17:36:01.641Z,11.50
2017-10-26T17:38:29.389Z,10.43
2017-10-26T17:40:57.173Z,23.37
2017-10-26T17:43:24.918Z,22.57
2017-10-26T17:45:52.739Z,14.00
2017-10-26T17:48:20.597Z,11.63
2017-10-26T17:50:48.218Z,12.27
2017-10-26T17:53:15.879Z,10.40
2017-10-26T17:55:43.477Z,9.97
2017-10-26T17:58:11.200Z,12.80
2017-10-26T18:00:38.805Z,11.20
2017-10-26T18:03:06.484Z,12.60
2017-10-26T18:05:34.099Z,10.50
2017-10-26T18:08:03.483Z,10.80
2017-10-26T18:10:31.115Z,10.80
2017-10-26T18:12:58.763Z,10.53
2017-10-26T18:15:26.375Z,10.30
2017-10-26T18:17:54.026Z,11.20
2017-10-26T18:20:21.647Z,11.67
2017-10-26T18:22:49.285Z,10.77
2017-10-26T18:25:16.907Z,10.17
2017-10-26T18:27:44.546Z,11.23
2017-10-26T18:30:12.162Z,11.50
2017-10-26T18:32:39.819Z,11.80
2017-10-26T18:35:07.437Z,12.13
2017-10-26T18:37:35.093Z,12.10
2017-10-26T18:40:02.745Z,12.60
2017-10-26T18:42:30.446Z,11.37
2017-10-26T18:45:01.378Z,12.20
2017-10-26T18:47:30.043Z,13.70
2017-10-26T18:49:57.775Z,10.00
2017-10-26T18:52:25.623Z,11.87
2017-10-26T18:54:53.423Z,12.70
2017-10-26T18:57:21.074Z,12.10
2017-10-26T18:59:48.668Z,11.10
2017-10-26T19:02:16.277Z,13.13
2017-10-26T19:04:43.971Z,12.00
2017-10-26T19:07:11.591Z,12.37
2017-10-26T19:09:39.227Z,12.50
2017-10-26T19:12:06.876Z,11.90
2017-10-26T19:14:34.542Z,13.27
2017-10-26T19:17:02.166Z,13.10
2017-10-26T19:19:29.809Z,15.77
2017-10-26T19:21:57.403Z,15.40
2017-10-26T19:24:25.095Z,13.63
2017-10-26T19:26:52.771Z,12.33
2017-10-26T19:29:20.506Z,18.33
2017-10-26T19:31:48.211Z,14.37
2017-10-26T19:34:15.828Z,10.70
2017-10-26T19:36:43.559Z,10.90
2017-10-26T19:39:11.264Z,11.10
2017-10-26T19:41:38.924Z,10.70
2017-10-26T19:44:06.587Z,11.30
2017-10-26T19:46:34.356Z,10.80
2017-10-26T19:49:02.078Z,9.70
2017-10-26T19:51:29.839Z,9.50
2017-10-26T19:53:57.503Z,11.20
2017-10-26T19:56:25.149Z,9.13
2017-10-26T19:58:52.886Z,10.00
2017-10-26T20:01:20.587Z,10.83
2017-10-26T20:03:48.211Z,9.83
2017-10-26T20:06:15.869Z,9.63
2017-10-26T20:08:43.527Z,9.63
2017-10-26T20:11:11.163Z,9.10
2017-10-26T20:13:38.792Z,9.90
2017-10-26T20:16:06.518Z,11.23
2017-10-26T20:18:34.179Z,11.73
2017-10-26T20:21:01.893Z,11.77
2017-10-26T20:23:29.547Z,12.53
2017-10-26T20:25:57.247Z,13.30
2017-10-26T20:28:27.420Z,12.50
2017-10-26T20:30:55.293Z,12.40
2017-10-26T20:33:23.042Z,14.60
2017-10-26T20:35:50.847Z,11.97
2017-10-26T20:38:21.936Z,15.30
2017-10-26T20:40:49.635Z,15.67
2017-10-26T20:43:17.359Z,16.10
2017-10-26T20:45:44.975Z,16.17
2017-10-26T20:48:12.616Z,16.37
2017-10-26T20:50:45.750Z,17.53
2017-10-26T20:53:18.811Z,18.13
2017-10-26T20:55:51.988Z,18.67
2017-10-26T20:58:25.123Z,19.53
2017-10-26T21:00:58.406Z,18.60
2017-10-26T21:03:31.554Z,18.90
2017-10-26T21:06:04.757Z,21.80
2017-10-26T21:08:37.984Z,20.17
2017-10-26T21:11:11.126Z,21.90
2017-10-26T21:13:44.217Z,20.60
2017-10-26T21:16:11.827Z,20.77
2017-10-26T21:18:39.471Z,21.00
2017-10-26T21:21:07.095Z,20.20
2017-10-26T21:23:34.758Z,20.47
2017-10-26T21:26:02.442Z,23.13
2017-10-26T21:28:30.083Z,21.47
2017-10-26T21:30:57.683Z,21.20
2017-10-26T21:33:25.319Z,21.60
2017-10-26T21:35:52.941Z,19.90
2017-10-26T21:38:20.605Z,21.60
2017-10-26T21:40:48.243Z,23.47
2017-10-26T21:43:15.864Z,21.67
2017-10-26T21:45:43.517Z,22.00
2017-10-26T21:48:11.147Z,22.20
2017-10-26T21:50:38.747Z,20.90
2017-10-26T21:53:06.396Z,21.33
2017-10-26T21:55:34.015Z,19.93
2017-10-26T21:58:01.655Z,18.87
2017-10-26T22:00:29.276Z,19.30
2017-10-26T22:02:56.924Z,18.07
2017-10-26T22:05:24.532Z,16.10
2017-10-26T22:07:52.295Z,15.10
2017-10-26T22:10:19.930Z,16.30
2017-10-26T22:12:47.542Z,13.40
2017-10-26T22:15:15.258Z,14.13
2017-10-26T22:17:42.858Z,13.50
2017-10-26T22:20:10.498Z,13.87
2017-10-26T22:22:38.170Z,12.50
2017-10-26T22:25:05.809Z,12.23
2017-10-26T22:27:33.447Z,13.20
2017-10-26T22:30:01.101Z,11.87
2017-10-26T22:32:28.704Z,11.43
2017-10-26T22:34:56.348Z,13.57
2017-10-26T22:37:23.951Z,14.03
2017-10-26T22:39:51.610Z,16.53
2017-10-26T22:42:19.227Z,14.40
2017-10-26T22:44:46.971Z,16.60
2017-10-26T22:47:14.588Z,16.23
2017-10-26T22:49:42.245Z,15.80
2017-10-26T22:52:09.880Z,15.40
2017-10-26T22:54:37.549Z,15.07
2017-10-26T22:57:05.155Z,15.67
2017-10-26T22:59:32.838Z,13.13
2017-10-26T23:02:00.452Z,13.30
2017-10-26T23:04:28.110Z,13.00
2017-10-26T23:06:55.709Z,15.60
2017-10-26T23:09:23.367Z,14.07
2017-10-26T23:11:50.972Z,14.87
2017-10-26T23:14:18.611Z,13.00
2017-10-26T23:16:46.219Z,16.30
2017-10-26T23:19:13.895Z,15.70
2017-10-26T23:21:41.593Z,14.87
2017-10-26T23:24:09.247Z,16.10
2017-10-26T23:26:36.847Z,18.00
2017-10-26T23:29:04.479Z,15.13
2017-10-26T23:31:32.148Z,14.10
2017-10-26T23:33:59.798Z,16.03
2017-10-26T23:36:27.395Z,15.77
2017-10-26T23:38:55.023Z,15.00
2017-10-26T23:41:22.640Z,15.60
2017-10-26T23:43:50.274Z,14.13
2017-10-26T23:46:17.887Z,15.47
2017-10-26T23:48:45.479Z,17.03
2017-10-26T23:51:13.092Z,15.10
2017-10-26T23:53:40.734Z,14.37
2017-10-26T23:56:08.351Z,14.03
2017-10-26T23:58:35.983Z,14.53
